createdAt,value
2023-01-27T00:00:36.114Z,98585.03
2023-01-27T00:03:02.826Z,98587.31
2023-01-27T00:05:29.539Z,98578.28
2023-01-27T00:07:58.749Z,98584.63
2023-01-27T00:10:26.432Z,98587.25
2023-01-27T00:13:12.398Z,98581.28
2023-01-27T00:15:39.687Z,98574.19
2023-01-27T00:18:08.087Z,98581.66
2023-01-27T00:20:53.408Z,98576.50
2023-01-27T00:23:41.153Z,98578.34
2023-01-27T00:26:11.750Z,98580.97
2023-01-27T00:28:40.334Z,98579.03
2023-01-27T00:31:27.304Z,98572.94
2023-01-27T00:33:56.276Z,98571.31
2023-01-27T00:36:23.089Z,98572.84
2023-01-27T00:38:49.709Z,98575.31
2023-01-27T00:41:19.851Z,98570.38
2023-01-27T00:43:51.635Z,98578.50
2023-01-27T00:48:58.443Z,98572.66
2023-01-27T00:51:25.401Z,98580.31
2023-01-27T00:53:52.052Z,98577.06
2023-01-27T00:56:19.458Z,98577.31
2023-01-27T00:58:46.276Z,98577.22
2023-01-27T01:01:15.609Z,98581.19
2023-01-27T01:03:43.018Z,98584.97
2023-01-27T01:06:11.759Z,98586.13
2023-01-27T01:16:21.978Z,98594.63
2023-01-27T01:18:48.946Z,98593.09
2023-01-27T01:21:15.848Z,98597.44
2023-01-27T01:23:43.862Z,98602.53
2023-01-27T01:26:12.120Z,98599.84
2023-01-27T01:28:39.179Z,98597.19
2023-01-27T01:31:11.025Z,98599.53
2023-01-27T01:36:13.324Z,98595.97
2023-01-27T01:38:40.131Z,98591.56
2023-01-27T01:41:10.262Z,98589.09
2023-01-27T01:43:36.889Z,98593.75
2023-01-27T01:46:04.476Z,98584.22
2023-01-27T01:49:01.877Z,98576.66
2023-01-27T01:51:40.462Z,98574.28
2023-01-27T01:54:12.309Z,98570.97
2023-01-27T01:56:41.916Z,98573.44
2023-01-27T01:59:17.807Z,98569.13
2023-01-27T02:04:21.429Z,98564.91
2023-01-27T02:07:05.835Z,98563.72
2023-01-27T02:09:33.004Z,98563.38
2023-01-27T02:12:00.593Z,98573.34
2023-01-27T02:14:27.315Z,98565.75
2023-01-27T02:16:54.615Z,98560.81
2023-01-27T02:19:42.543Z,98560.22
2023-01-27T02:22:13.227Z,98553.06
2023-01-27T02:24:47.306Z,98552.88
2023-01-27T02:27:14.512Z,98555.13
2023-01-27T02:29:41.098Z,98560.06
2023-01-27T02:32:07.609Z,98552.66
2023-01-27T02:34:37.891Z,98549.09
2023-01-27T02:37:08.166Z,98546.28
2023-01-27T02:39:40.286Z,98553.81
2023-01-27T02:42:08.448Z,98557.72
2023-01-27T02:44:35.176Z,98560.22
2023-01-27T02:47:01.756Z,98558.13
2023-01-27T02:49:28.274Z,98558.84
2023-01-27T02:51:54.916Z,98548.97
2023-01-27T02:54:21.475Z,98552.16
2023-01-27T02:56:48.072Z,98557.03
2023-01-27T02:59:14.583Z,98547.59
2023-01-27T03:01:41.197Z,98555.44
2023-01-27T03:04:09.309Z,98547.00
2023-01-27T03:09:14.176Z,98537.56
2023-01-27T03:11:59.478Z,98545.53
2023-01-27T03:14:44.427Z,98538.66
2023-01-27T03:17:29.670Z,98541.81
2023-01-27T03:19:56.224Z,98547.06
2023-01-27T03:22:22.795Z,98562.00
2023-01-27T03:24:49.330Z,98568.59
2023-01-27T03:27:15.841Z,98561.75
2023-01-27T03:29:58.160Z,98559.38
2023-01-27T03:32:26.523Z,98559.94
2023-01-27T03:34:53.229Z,98567.69
2023-01-27T03:37:38.384Z,98556.16
2023-01-27T03:40:24.267Z,98559.56
2023-01-27T03:43:12.198Z,98551.56
2023-01-27T03:45:57.632Z,98552.13
2023-01-27T03:48:24.288Z,98553.69
2023-01-27T03:50:53.851Z,98552.31
2023-01-27T03:53:20.850Z,98557.78
2023-01-27T03:55:47.552Z,98560.28
2023-01-27T03:58:19.849Z,98560.00
2023-01-27T04:00:57.842Z,98561.94
2023-01-27T04:03:45.295Z,98557.72
2023-01-27T04:06:34.267Z,98555.97
2023-01-27T04:09:01.107Z,98556.00
2023-01-27T04:11:46.108Z,98551.81
2023-01-27T04:14:12.954Z,98552.81
2023-01-27T04:16:39.749Z,98558.91
2023-01-27T04:19:09.337Z,98573.22
2023-01-27T04:21:36.315Z,98571.13
2023-01-27T04:24:04.337Z,98567.31
2023-01-27T04:26:34.649Z,98577.75
2023-01-27T04:29:03.445Z,98569.78
2023-01-27T04:31:30.739Z,98573.06
2023-01-27T04:33:57.299Z,98568.69
2023-01-27T04:36:23.984Z,98570.47
2023-01-27T04:38:50.544Z,98568.03
2023-01-27T04:41:17.320Z,98574.13
2023-01-27T04:43:43.866Z,98568.69
2023-01-27T04:46:10.522Z,98559.72
2023-01-27T04:48:37.112Z,98554.19
2023-01-27T04:51:03.819Z,98563.03
2023-01-27T04:53:30.392Z,98572.81
2023-01-27T04:56:06.324Z,98559.75
2023-01-27T04:58:33.205Z,98568.31
2023-01-27T05:00:59.764Z,98574.47
2023-01-27T05:03:26.336Z,98579.22
2023-01-27T05:05:52.863Z,98580.72
2023-01-27T05:08:19.433Z,98572.53
2023-01-27T05:10:46.018Z,98570.56
2023-01-27T05:13:12.693Z,98582.81
2023-01-27T05:15:39.290Z,98582.03
2023-01-27T05:18:05.927Z,98582.41
2023-01-27T05:20:32.848Z,98583.81
2023-01-27T05:23:19.424Z,98584.22
2023-01-27T05:25:46.348Z,98588.47
2023-01-27T05:28:12.927Z,98584.09
2023-01-27T05:30:39.681Z,98580.53
2023-01-27T05:33:08.215Z,98584.59
2023-01-27T05:35:35.428Z,98587.00
2023-01-27T05:38:02.182Z,98597.44
2023-01-27T05:40:28.864Z,98591.47
2023-01-27T05:42:55.386Z,98595.13
2023-01-27T05:45:21.957Z,98595.63
2023-01-27T05:47:51.947Z,98594.63
2023-01-27T05:50:18.949Z,98602.09
2023-01-27T05:52:46.074Z,98595.97
2023-01-27T05:55:12.947Z,98597.44
2023-01-27T05:57:39.667Z,98595.53
2023-01-27T06:00:06.962Z,98596.94
2023-01-27T06:02:33.566Z,98596.94
2023-01-27T06:05:00.164Z,98596.38
2023-01-27T06:10:05.723Z,98596.13
2023-01-27T06:12:32.278Z,98592.66
2023-01-27T06:15:00.397Z,98594.53
2023-01-27T06:17:26.933Z,98599.59
2023-01-27T06:19:53.514Z,98600.50
2023-01-27T06:22:20.201Z,98597.31
2023-01-27T06:24:46.714Z,98608.56
2023-01-27T06:27:13.255Z,98595.72
2023-01-27T06:29:39.832Z,98601.84
2023-01-27T06:32:06.497Z,98605.41
2023-01-27T06:34:33.055Z,98601.94
2023-01-27T06:36:59.643Z,98597.50
2023-01-27T06:39:26.437Z,98607.47
2023-01-27T06:41:53.061Z,98612.84
2023-01-27T06:44:19.650Z,98619.59
2023-01-27T06:46:46.208Z,98623.63
2023-01-27T06:49:13.451Z,98618.41
2023-01-27T06:51:39.967Z,98627.94
2023-01-27T06:54:06.758Z,98636.31
2023-01-27T06:59:04.549Z,98641.25
2023-01-27T07:01:31.139Z,98656.56
2023-01-27T07:03:57.773Z,98649.75
2023-01-27T07:06:24.364Z,98656.31
2023-01-27T07:08:52.047Z,98660.88
2023-01-27T07:11:19.633Z,98662.47
2023-01-27T07:13:46.525Z,98662.69
2023-01-27T07:16:13.270Z,98667.25
2023-01-27T07:18:39.817Z,98656.59
2023-01-27T07:21:06.592Z,98659.28
2023-01-27T07:23:33.176Z,98660.88
2023-01-27T07:26:04.290Z,98672.03
2023-01-27T07:28:32.381Z,98678.00
2023-01-27T07:31:03.039Z,98672.34
2023-01-27T07:33:29.663Z,98678.59
2023-01-27T07:35:56.250Z,98684.63
2023-01-27T07:38:22.825Z,98688.84
2023-01-27T07:40:49.427Z,98690.16
2023-01-27T07:43:16.079Z,98693.34
2023-01-27T07:45:42.702Z,98697.06
2023-01-27T07:48:09.858Z,98692.31
2023-01-27T07:50:36.573Z,98692.34
2023-01-27T07:53:05.007Z,98687.59
2023-01-27T07:55:33.177Z,98701.28
2023-01-27T07:57:59.845Z,98706.84
2023-01-27T08:00:26.735Z,98702.34
2023-01-27T08:02:54.687Z,98713.47
2023-01-27T08:05:22.942Z,98711.28
2023-01-27T08:07:51.006Z,98709.31
2023-01-27T08:10:19.028Z,98704.47
2023-01-27T08:12:46.156Z,98708.53
2023-01-27T08:15:13.076Z,98715.56
2023-01-27T08:17:39.845Z,98707.94
2023-01-27T08:20:06.970Z,98715.28
2023-01-27T08:22:33.507Z,98725.44
2023-01-27T08:25:00.072Z,98725.31
2023-01-27T08:27:26.617Z,98721.59
2023-01-27T08:29:53.582Z,98721.06
2023-01-27T08:32:20.110Z,98724.94
2023-01-27T08:34:46.655Z,98733.94
2023-01-27T08:37:13.274Z,98723.03
2023-01-27T08:39:39.841Z,98724.06
2023-01-27T08:42:06.361Z,98728.34
2023-01-27T08:44:32.945Z,98727.34
2023-01-27T08:46:59.462Z,98731.09
2023-01-27T08:49:26.078Z,98744.91
2023-01-27T08:51:52.644Z,98737.50
2023-01-27T08:54:19.300Z,98738.22
2023-01-27T08:56:45.906Z,98739.47
2023-01-27T08:59:12.571Z,98743.47
2023-01-27T09:01:39.552Z,98737.72
2023-01-27T09:04:06.081Z,98742.88
2023-01-27T09:06:32.698Z,98733.00
2023-01-27T09:09:12.305Z,98723.03
2023-01-27T09:11:41.756Z,98738.13
2023-01-27T09:14:09.033Z,98737.34
2023-01-27T09:16:35.894Z,98735.84
2023-01-27T09:19:03.443Z,98748.59
2023-01-27T09:21:30.357Z,98738.19
2023-01-27T09:23:56.939Z,98735.66
2023-01-27T09:26:23.543Z,98730.41
2023-01-27T09:28:50.146Z,98733.91
2023-01-27T09:31:16.824Z,98738.06
2023-01-27T09:33:43.466Z,98736.97
2023-01-27T09:36:12.119Z,98742.09
2023-01-27T09:38:45.342Z,98745.50
2023-01-27T09:41:24.037Z,98738.22
2023-01-27T09:44:02.698Z,98732.03
2023-01-27T09:46:50.746Z,98739.28
2023-01-27T09:49:24.113Z,98736.59
2023-01-27T09:52:21.160Z,98742.47
2023-01-27T09:55:21.995Z,98751.03
2023-01-27T09:58:04.189Z,98736.13
2023-01-27T10:01:08.809Z,98746.63
2023-01-27T10:03:43.477Z,98743.00
2023-01-27T10:06:42.101Z,98733.22
2023-01-27T10:09:14.559Z,98733.81
2023-01-27T10:11:47.545Z,98740.78
2023-01-27T10:14:19.999Z,98750.84
2023-01-27T10:17:24.369Z,98746.84
2023-01-27T10:23:13.653Z,98738.66
2023-01-27T10:25:54.166Z,98741.88
2023-01-27T10:28:24.099Z,98736.59
2023-01-27T10:31:13.568Z,98743.66
2023-01-27T10:33:46.389Z,98746.59
2023-01-27T10:36:26.597Z,98744.97
2023-01-27T10:39:05.856Z,98746.44
2023-01-27T10:41:47.367Z,98742.59
2023-01-27T10:44:16.618Z,98755.97
2023-01-27T10:46:58.456Z,98756.84
2023-01-27T10:50:14.581Z,98750.84
2023-01-27T10:52:48.077Z,98755.34
2023-01-27T10:55:21.874Z,98754.53
2023-01-27T11:01:18.121Z,98753.97
2023-01-27T11:03:33.886Z,98756.50
2023-01-27T11:06:08.505Z,98746.75
2023-01-27T11:08:38.355Z,98749.66
2023-01-27T11:11:27.061Z,98749.97
2023-01-27T11:14:03.462Z,98742.25
2023-01-27T11:16:37.301Z,98743.38
2023-01-27T11:19:28.614Z,98747.19
2023-01-27T11:22:07.105Z,98746.97
2023-01-27T11:25:02.652Z,98747.56
2023-01-27T11:27:55.248Z,98736.03
2023-01-27T11:30:28.117Z,98734.44
2023-01-27T11:35:30.843Z,98730.16
2023-01-27T11:38:09.892Z,98738.03
2023-01-27T11:40:41.723Z,98745.13
2023-01-27T11:43:16.321Z,98734.53
2023-01-27T11:45:45.279Z,98738.34
2023-01-27T11:48:14.946Z,98738.22
2023-01-27T11:50:43.112Z,98732.44
2023-01-27T11:53:09.541Z,98728.75
2023-01-27T11:55:44.005Z,98723.06
2023-01-27T11:58:19.523Z,98726.75
2023-01-27T12:00:51.832Z,98722.28
2023-01-27T12:03:47.530Z,98721.69
2023-01-27T12:06:41.755Z,98712.00
2023-01-27T12:09:35.997Z,98712.09
2023-01-27T12:12:15.056Z,98707.09
2023-01-27T12:14:59.852Z,98711.59
2023-01-27T12:17:55.387Z,98710.31
2023-01-27T12:20:21.940Z,98719.50
2023-01-27T12:22:53.711Z,98708.59
2023-01-27T12:25:25.362Z,98711.69
2023-01-27T12:27:55.170Z,98703.03
2023-01-27T12:30:25.085Z,98698.16
2023-01-27T12:32:52.563Z,98698.63
2023-01-27T12:35:30.551Z,98700.94
2023-01-27T12:38:05.376Z,98698.34
2023-01-27T12:40:33.934Z,98701.75
2023-01-27T12:43:22.648Z,98703.53
2023-01-27T12:46:10.559Z,98697.56
2023-01-27T12:48:48.226Z,98700.75
2023-01-27T12:51:21.328Z,98705.22
2023-01-27T12:53:49.901Z,98704.53
2023-01-27T12:59:00.241Z,98693.47
2023-01-27T13:01:37.542Z,98683.69
2023-01-27T13:04:16.390Z,98697.75
2023-01-27T13:07:03.880Z,98687.59
2023-01-27T13:09:50.962Z,98685.72
2023-01-27T13:12:27.925Z,98682.91
2023-01-27T13:14:57.468Z,98685.59
2023-01-27T13:17:36.095Z,98687.97
2023-01-27T13:20:16.539Z,98689.28
2023-01-27T13:22:53.825Z,98695.38
2023-01-27T13:25:24.908Z,98695.97
2023-01-27T13:27:56.686Z,98696.97
2023-01-27T13:30:29.169Z,98705.75
2023-01-27T13:33:02.887Z,98704.25
2023-01-27T13:35:41.886Z,98709.03
2023-01-27T13:38:19.459Z,98709.53
2023-01-27T13:40:47.533Z,98709.53
2023-01-27T13:43:20.918Z,98712.91
2023-01-27T13:45:59.443Z,98713.31
2023-01-27T13:48:32.160Z,98718.19
2023-01-27T13:51:18.373Z,98716.09
2023-01-27T13:53:47.774Z,98716.75
2023-01-27T13:56:37.346Z,98718.28
2023-01-27T13:59:25.788Z,98724.38
2023-01-27T14:02:26.769Z,98728.06
2023-01-27T14:05:17.411Z,98737.34
2023-01-27T14:08:15.049Z,98738.72
2023-01-27T14:10:55.687Z,98744.19
2023-01-27T14:13:56.063Z,98735.50
2023-01-27T14:16:33.644Z,98739.13
2023-01-27T14:19:37.075Z,98739.22
2023-01-27T14:22:20.171Z,98741.69
2023-01-27T14:24:53.398Z,98735.13
2023-01-27T14:27:28.971Z,98733.25
2023-01-27T14:30:19.356Z,98738.72
2023-01-27T14:32:58.809Z,98746.69
2023-01-27T14:35:59.457Z,98752.56
2023-01-27T14:38:48.392Z,98746.16
2023-01-27T14:41:32.270Z,98744.34
2023-01-27T14:44:15.260Z,98745.81
2023-01-27T14:46:56.292Z,98752.66
2023-01-27T14:49:40.591Z,98752.84
2023-01-27T14:52:23.609Z,98749.03
2023-01-27T14:55:28.000Z,98750.94
2023-01-27T15:00:59.762Z,98742.69
2023-01-27T15:03:50.424Z,98745.81
2023-01-27T15:06:35.070Z,98752.56
2023-01-27T15:09:26.463Z,98746.75
2023-01-27T15:12:29.833Z,98747.97
2023-01-27T15:15:03.321Z,98749.09
2023-01-27T15:17:46.422Z,98746.59
2023-01-27T15:20:49.165Z,98742.00
2023-01-27T15:23:26.799Z,98736.22
2023-01-27T15:26:00.143Z,98740.28
2023-01-27T15:28:32.327Z,98742.03
2023-01-27T15:31:06.294Z,98747.56
2023-01-27T15:34:04.698Z,98741.22
2023-01-27T15:36:40.389Z,98738.03
2023-01-27T15:39:09.953Z,98751.91
2023-01-27T15:41:38.186Z,98751.41
2023-01-27T15:44:04.918Z,98751.41
2023-01-27T15:46:36.199Z,98762.59
2023-01-27T15:49:05.229Z,98762.97
2023-01-27T15:51:36.662Z,98763.53
2023-01-27T15:54:04.484Z,98767.22
2023-01-27T15:57:06.648Z,98771.03
2023-01-27T15:59:58.444Z,98778.72
2023-01-27T16:02:28.986Z,98781.41
2023-01-27T16:10:18.999Z,98798.78
2023-01-27T16:12:48.688Z,98797.22
2023-01-27T16:15:15.586Z,98802.19
2023-01-27T16:17:57.461Z,98807.41
2023-01-27T16:20:29.361Z,98820.94
2023-01-27T16:26:30.562Z,98813.25
2023-01-27T16:29:17.693Z,98817.78
2023-01-27T16:31:44.420Z,98818.06
2023-01-27T16:34:23.374Z,98820.94
2023-01-27T16:37:01.077Z,98817.53
2023-01-27T16:39:50.799Z,98820.41
2023-01-27T16:42:17.780Z,98823.94
2023-01-27T16:44:50.964Z,98823.88
2023-01-27T16:47:41.411Z,98822.47
2023-01-27T16:50:32.046Z,98820.94
2023-01-27T16:52:58.780Z,98819.38
2023-01-27T16:55:25.572Z,98818.88
2023-01-27T16:57:54.639Z,98822.09
2023-01-27T17:00:28.632Z,98819.03
2023-01-27T17:02:58.151Z,98824.75
2023-01-27T17:05:25.952Z,98827.47
2023-01-27T17:08:14.340Z,98824.88
2023-01-27T17:11:08.260Z,98830.84
2023-01-27T17:13:44.597Z,98834.31
2023-01-27T17:16:19.130Z,98830.25
2023-01-27T17:18:52.758Z,98833.81
2023-01-27T17:21:29.580Z,98827.72
2023-01-27T17:24:01.999Z,98838.06
2023-01-27T17:26:28.696Z,98823.59
2023-01-27T17:28:55.355Z,98824.66
2023-01-27T17:31:24.786Z,98828.75
2023-01-27T17:33:59.167Z,98841.59
2023-01-27T17:36:25.744Z,98840.88
2023-01-27T17:38:55.589Z,98839.66
2023-01-27T17:41:35.938Z,98841.84
2023-01-27T17:44:11.529Z,98836.19
2023-01-27T17:46:38.779Z,98839.50
2023-01-27T17:49:16.540Z,98839.38
2023-01-27T17:54:25.847Z,98839.22
2023-01-27T17:57:00.871Z,98845.09
2023-01-27T17:59:28.881Z,98859.69
2023-01-27T18:01:59.775Z,98854.78
2023-01-27T18:04:26.407Z,98852.16
2023-01-27T18:06:53.024Z,98856.00
2023-01-27T18:09:24.977Z,98855.34
2023-01-27T18:11:53.586Z,98852.53
2023-01-27T18:14:21.439Z,98850.44
2023-01-27T18:17:05.658Z,98853.31
2023-01-27T18:19:33.744Z,98855.84
2023-01-27T18:22:10.313Z,98853.47
2023-01-27T18:27:30.618Z,98850.44
2023-01-27T18:30:02.216Z,98849.75
2023-01-27T18:32:37.914Z,98846.00
2023-01-27T18:35:21.549Z,98858.03
2023-01-27T18:37:58.681Z,98857.47
2023-01-27T18:40:30.380Z,98858.94
2023-01-27T18:42:57.839Z,98848.09
2023-01-27T18:45:26.091Z,98853.56
2023-01-27T18:47:52.983Z,98854.25
2023-01-27T18:50:25.081Z,98858.66
2023-01-27T18:52:52.291Z,98860.59
2023-01-27T18:55:20.703Z,98866.47
2023-01-27T18:57:49.948Z,98870.03
2023-01-27T19:00:19.329Z,98867.50
2023-01-27T19:02:49.137Z,98861.97
2023-01-27T19:05:21.439Z,98864.28
2023-01-27T19:07:48.111Z,98867.84
2023-01-27T19:10:20.813Z,98865.63
2023-01-27T19:12:47.432Z,98862.41
2023-01-27T19:15:15.098Z,98871.44
2023-01-27T19:17:44.689Z,98871.72
2023-01-27T19:20:19.776Z,98864.16
2023-01-27T19:22:47.519Z,98868.22
2023-01-27T19:25:14.526Z,98871.69
2023-01-27T19:27:43.439Z,98874.66
2023-01-27T19:30:28.162Z,98882.81
2023-01-27T19:32:55.762Z,98875.63
2023-01-27T19:35:24.208Z,98878.00
2023-01-27T19:37:53.898Z,98879.28
2023-01-27T19:40:23.907Z,98873.81
2023-01-27T19:42:50.721Z,98876.00
2023-01-27T19:45:19.308Z,98875.91
2023-01-27T19:47:49.121Z,98881.38
2023-01-27T19:50:27.436Z,98888.38
2023-01-27T19:52:53.979Z,98883.94
2023-01-27T19:55:21.328Z,98885.75
2023-01-27T19:57:49.081Z,98887.88
2023-01-27T20:00:25.892Z,98889.47
2023-01-27T20:02:53.163Z,98895.94
2023-01-27T20:05:20.566Z,98891.44
2023-01-27T20:10:27.241Z,98895.94
2023-01-27T20:13:05.874Z,98898.72
2023-01-27T20:15:37.321Z,98901.69
2023-01-27T20:18:04.696Z,98901.16
2023-01-27T20:20:31.377Z,98896.56
2023-01-27T20:22:58.076Z,98900.03
2023-01-27T20:25:27.800Z,98896.03
2023-01-27T20:28:00.022Z,98903.31
2023-01-27T20:30:29.258Z,98901.25
2023-01-27T20:32:56.511Z,98903.50
2023-01-27T20:35:23.272Z,98903.06
2023-01-27T20:37:51.779Z,98904.03
2023-01-27T20:40:23.732Z,98908.69
2023-01-27T20:42:51.229Z,98900.81
2023-01-27T20:45:18.346Z,98909.16
2023-01-27T20:47:49.810Z,98907.97
2023-01-27T20:50:16.580Z,98911.72
2023-01-27T20:52:43.193Z,98916.88
2023-01-27T20:55:09.932Z,98912.69
2023-01-27T20:57:36.580Z,98905.59
2023-01-27T21:00:03.275Z,98910.00
2023-01-27T21:02:30.128Z,98914.06
2023-01-27T21:04:57.074Z,98922.41
2023-01-27T21:07:24.744Z,98923.56
2023-01-27T21:09:53.617Z,98927.38
2023-01-27T21:12:21.448Z,98927.72
2023-01-27T21:14:48.256Z,98929.91
2023-01-27T21:17:14.810Z,98930.41
2023-01-27T21:19:41.457Z,98929.47
2023-01-27T21:22:07.973Z,98926.06
2023-01-27T21:24:35.601Z,98922.94
2023-01-27T21:27:02.199Z,98932.75
2023-01-27T21:29:28.752Z,98932.66
2023-01-27T21:34:29.035Z,98932.22
2023-01-27T21:36:55.999Z,98921.22
2023-01-27T21:39:23.536Z,98924.22
2023-01-27T21:41:52.832Z,98922.69
2023-01-27T21:44:39.554Z,98926.31
2023-01-27T21:47:08.431Z,98926.91
2023-01-27T21:49:56.006Z,98922.31
2023-01-27T21:52:24.135Z,98923.91
2023-01-27T21:54:50.757Z,98918.53
2023-01-27T21:57:18.110Z,98923.75
2023-01-27T22:02:18.547Z,98920.69
2023-01-27T22:04:46.278Z,98911.59
2023-01-27T22:07:15.695Z,98921.72
2023-01-27T22:09:42.613Z,98919.97
2023-01-27T22:12:11.309Z,98917.44
2023-01-27T22:14:37.907Z,98915.97
2023-01-27T22:17:04.528Z,98917.13
2023-01-27T22:19:31.255Z,98919.63
2023-01-27T22:21:57.883Z,98919.34
2023-01-27T22:24:24.623Z,98909.44
2023-01-27T22:26:51.566Z,98915.34
2023-01-27T22:29:18.124Z,98908.41
2023-01-27T22:31:44.642Z,98915.28
2023-01-27T22:34:11.197Z,98910.91
2023-01-27T22:36:37.774Z,98921.69
2023-01-27T22:39:05.101Z,98930.47
2023-01-27T22:41:32.189Z,98920.94
2023-01-27T22:46:29.995Z,98923.53
2023-01-27T22:48:56.487Z,98928.41
2023-01-27T22:51:23.036Z,98927.75
2023-01-27T22:53:49.690Z,98926.75
2023-01-27T22:56:16.281Z,98928.34
2023-01-27T22:58:42.837Z,98927.34
2023-01-27T23:01:09.395Z,98922.47
2023-01-27T23:03:35.986Z,98926.31
2023-01-27T23:06:06.624Z,98930.47
2023-01-27T23:08:34.135Z,98928.16
2023-01-27T23:11:05.231Z,98926.38
2023-01-27T23:13:32.587Z,98924.50
2023-01-27T23:15:59.300Z,98925.06
2023-01-27T23:18:25.887Z,98926.44
2023-01-27T23:20:53.184Z,98921.72
2023-01-27T23:23:19.859Z,98922.03
2023-01-27T23:25:47.733Z,98922.81
2023-01-27T23:28:16.709Z,98915.53
2023-01-27T23:30:44.679Z,98916.66
2023-01-27T23:33:12.536Z,98913.38
2023-01-27T23:35:39.487Z,98912.50
2023-01-27T23:38:14.020Z,98915.06
2023-01-27T23:40:45.971Z,98924.66
2023-01-27T23:43:12.484Z,98916.66
2023-01-27T23:45:39.383Z,98924.34
2023-01-27T23:48:06.108Z,98926.38
2023-01-27T23:50:32.624Z,98927.19
2023-01-27T23:52:59.171Z,98920.50
2023-01-27T23:55:25.850Z,98933.13
2023-01-27T23:57:52.408Z,98924.50
